Latest Weather Observations for Low Rocky Point

IDT60801

Issued at 9:01 am EDT Saturday 28 March 2015 (issued every 30 minutes, with the page automatically refreshed every 10 minutes)

About weather observations | Map of weather stations | Latest weather observations for TAS | Other Formats
Station Details ID: 097080 Name: LOW ROCKY POINT Lat: -42.98 Lon: 145.50 Height: 34.0 m
Data from the previous 72 hours. | See also: Recent months at Low Rocky Point
Date/Time
EDT
Temp
°C
App
Temp
°C
Dew
Point
Rel
Hum
%
Delta-T
°C
Wind Press
QNH
hPa
Press
MSL
hPa
Rain
since 9 am
mm
Dir
 
Spd
km/h
Gust
km/h
Spd
kts
Gust
kts
28/08:30am 11.1 6.0 9.2 88 0.9 WNW 26 32 14 17 1022.1 1022.1 0.8
28/08:00am 11.0 6.8 9.6 91 0.7 W 22 28 12 15 1021.8 1021.8 0.8
28/07:30am 10.5 6.2 9.3 92 0.6 W 22 28 12 15 1021.7 1021.6 0.8
28/07:00am 11.1 6.6 10.0 93 0.6 W 24 32 13 17 1021.5 1021.5 0.8
28/06:30am 10.9 6.4 10.0 94 0.5 W 24 30 13 16 1021.5 1021.4 0.8
28/05:30am 10.3 5.2 9.2 93 0.5 WSW 26 35 14 19 1021.5 1021.4 0.8
28/05:00am 10.8 7.1 9.6 92 0.6 WNW 19 22 10 12 1021.5 1021.5 0.4
28/04:30am 10.9 5.9 9.5 91 0.7 W 26 30 14 16 1021.4 1021.3 0.4
28/04:00am 10.8 8.1 8.9 88 0.9 WNW 13 19 7 10 1021.5 1021.5 0.2
28/03:30am 11.5 6.7 8.7 83 1.4 WNW 24 32 13 17 1021.6 1021.5 0.2
28/03:00am 12.1 8.4 8.0 76 2.0 W 17 20 9 11 1021.7 1021.7 0.2
28/02:30am 12.1 9.2 8.0 76 2.0 W 13 17 7 9 1021.8 1021.8 0.2
28/02:00am 12.0 9.1 8.1 77 1.9 W 13 19 7 10 1021.9 1021.9 0.2
28/01:30am 11.8 8.8 7.9 77 1.9 WSW 13 17 7 9 1022.0 1022.0 0.2
28/01:00am 11.9 7.8 7.8 76 2.0 WSW 19 26 10 14 1022.1 1022.1 0.2
28/12:30am 11.8 7.9 7.3 74 2.2 W 17 24 9 13 1022.3 1022.3 0.2
 
Date/Time
EDT
Temp
°C
App
Temp
°C
Dew
Point
Rel
Hum
%
Delta-T
°C
Wind Press
QNH
hPa
Press
MSL
hPa
Rain
since 9 am
mm
Dir
 
Spd
km/h
Gust
km/h
Spd
kts
Gust
kts
27/11:30pm 12.0 6.9 7.7 75 2.1 WSW 24 30 13 16 1022.1 1022.1 0.2
27/11:00pm 12.1 8.1 8.2 77 1.9 WSW 19 24 10 13 1022.2 1022.2 0.2
27/10:30pm 12.1 8.0 8.8 80 1.6 WSW 20 26 11 14 1022.1 1022.1 0.2
27/10:00pm 12.0 8.0 9.0 82 1.5 WSW 20 28 11 15 1022.2 1022.2 0.2
27/09:30pm 12.1 7.7 9.1 82 1.5 SW 22 30 12 16 1022.0 1022.0 0.2
27/09:00pm 12.2 8.4 8.9 80 1.6 SW 19 26 10 14 1021.8 1021.8 0.2
27/08:30pm 12.0 7.9 8.7 80 1.6 SW 20 28 11 15 1021.5 1021.4 0.2
27/08:00pm 12.0 6.8 8.8 81 1.6 SW 26 33 14 18 1021.2 1021.2 0.2
27/07:30pm 12.0 6.8 9.0 82 1.5 SW 26 33 14 18 1020.9 1020.8 0.2
27/07:00pm 12.2 7.2 9.4 83 1.4 SW 26 37 14 20 1020.6 1020.6 0.2
27/06:30pm 12.5 7.2 9.9 84 1.3 SSW 28 39 15 21 1020.4 1020.3 0.2
27/05:30pm 12.8 7.6 10.3 85 1.3 SSW 28 41 15 22 1019.6 1019.5 0.2
27/05:00pm 12.9 7.0 10.6 86 1.2 SSW 32 44 17 24 1019.3 1019.3 0.2
27/04:30pm 13.3 7.5 10.8 85 1.3 SSW 32 43 17 23 1019.1 1019.0 0.2
27/04:00pm 14.1 8.8 11.4 84 1.4 SSW 30 44 16 24 1019.0 1019.0 0.2
27/03:30pm 14.0 8.3 11.3 84 1.4 SSW 32 44 17 24 1018.7 1018.6 0.2
27/03:00pm 14.7 9.0 11.7 82 1.6 S 33 44 18 24 1018.6 1018.6 0.2
27/02:30pm 15.5 10.0 12.6 83 1.6 SSW 33 48 18 26 1018.5 1018.4 0.2
27/02:00pm 15.3 9.0 12.4 83 1.6 SSW 37 50 20 27 1018.5 1018.5 0.2
27/01:30pm 15.5 9.0 12.8 84 1.5 SSW 39 50 21 27 1018.5 1018.4 0.2
27/01:00pm 15.4 9.4 13.2 87 1.2 SSW 37 50 20 27 1018.3 1018.3 0.2
27/12:30pm 14.9 8.4 12.8 87 1.2 SSW 39 52 21 28 1018.0 1017.9 0.2
27/12:02pm 14.3 7.3 12.5 89 1.0 SSW 41 59 22 32 1017.7 1017.6 0.2
27/12:00pm 14.3 7.3 12.5 89 1.0 SSW 41 54 22 29 1017.7 1017.7 0.2
27/11:30am 14.8 8.4 13.2 90 0.9 S 39 52 21 28 1017.3 1017.2 0.2
27/11:00am 15.0 7.4 13.5 91 0.8 S 46 61 25 33 1016.8 1016.8 0.2
27/10:55am 14.9 7.9 13.6 92 0.7 S 43 61 23 33 1016.8 1016.7 0.2
27/10:30am 14.1 7.6 13.0 93 0.6 S 39 50 21 27 1016.4 1016.3 0.2
27/10:09am 13.2 6.5 12.3 94 0.5 S 39 59 21 32 1016.0 1015.9 0.2
27/10:00am 13.2 6.9 12.4 95 0.4 S 37 48 20 26 1016.0 1015.9 0.2
27/09:30am 12.2 5.6 11.3 94 0.5 S 37 48 20 26 1015.4 1015.4 0.0
27/09:12am 13.3 6.7 12.5 95 0.4 S 39 57 21 31 1015.1 1015.1 0.0
27/09:00am 12.9 6.1 12.1 95 0.4 S 39 50 21 27 1014.8 1014.8 5.8
27/08:30am 13.2 7.4 12.7 97 0.3 S 35 46 19 25 1014.4 1014.4 5.8
27/08:00am 12.3 6.2 11.7 96 0.3 S 35 46 19 25 1013.9 1013.9 5.4
27/07:30am 12.2 7.4 11.6 96 0.3 SSE 28 37 15 20 1013.4 1013.4 5.4
27/07:00am 11.4 8.8 10.6 95 0.4 SW 15 24 8 13 1013.1 1013.1 5.2
27/06:30am 11.1 8.0 10.2 94 0.5 WNW 17 20 9 11 1012.7 1012.7 5.0
27/06:00am 11.0 8.2 9.9 93 0.6 WNW 15 19 8 10 1012.6 1012.6 4.2
27/05:30am 10.9 8.4 9.7 92 0.6 WSW 13 17 7 9 1012.7 1012.7 3.0
27/05:00am 10.9 8.3 9.3 90 0.8 SW 13 20 7 11 1012.7 1012.7 2.2
27/04:30am 10.7 7.3 9.1 90 0.8 WSW 17 22 9 12 1012.5 1012.5 2.0
27/04:00am 9.5 7.3 7.8 89 0.8 NNW 9 11 5 6 1012.3 1012.3 2.0
27/03:30am 9.3 7.4 7.4 88 0.9 NNW 7 9 4 5 1012.2 1012.2 2.0
27/03:00am 8.8 8.1 7.1 89 0.8 CALM 0 0 0 0 1012.5 1012.5 2.0
27/02:30am 8.5 6.6 6.8 89 0.8 ENE 6 7 3 4 1012.2 1012.2 2.0
27/02:00am 7.9 5.3 6.2 89 0.8 ENE 9 11 5 6 1012.2 1012.2 2.0
27/01:30am 7.3 4.2 5.6 89 0.8 ENE 11 13 6 7 1012.2 1012.2 2.0
27/01:00am 7.3 3.8 5.4 88 0.8 ENE 13 13 7 7 1012.1 1012.1 2.0
27/12:30am 7.1 3.9 5.1 87 0.9 ENE 11 13 6 7 1011.5 1011.5 2.0
27/12:00am 7.9 3.7 5.9 87 0.9 NE 17 17 9 9 1011.1 1011.1 2.0
 
Date/Time
EDT
Temp
°C
App
Temp
°C
Dew
Point
Rel
Hum
%
Delta-T
°C
Wind Press
QNH
hPa
Press
MSL
hPa
Rain
since 9 am
mm
Dir
 
Spd
km/h
Gust
km/h
Spd
kts
Gust
kts
26/11:30pm 7.5 3.5 5.1 85 1.1 NE 15 17 8 9 1011.5 1011.5 2.0
26/11:00pm 7.5 3.1 4.8 83 1.2 ENE 17 19 9 10 1011.4 1011.4 2.0
26/10:30pm 8.3 3.5 5.4 82 1.3 NE 20 26 11 14 1010.9 1010.9 2.0
26/10:00pm 8.4 3.2 5.3 81 1.4 NNE 22 26 12 14 1010.9 1010.9 2.0
26/09:30pm 9.1 4.3 5.7 79 1.5 NNE 20 24 11 13 1011.2 1011.2 2.0
26/09:00pm 10.3 6.9 6.1 75 2.0 NNW 13 19 7 10 1011.4 1011.4 2.0
26/08:30pm 11.4 6.9 7.1 75 2.1 WNW 20 24 11 13 1011.2 1011.2 2.0
26/08:00pm 11.2 6.8 6.7 74 2.1 WNW 19 26 10 14 1010.8 1010.8 2.0
26/07:30pm 11.2 6.7 6.9 75 2.0 WNW 20 24 11 13 1010.8 1010.8 2.0
26/07:00pm 11.4 6.5 6.9 74 2.1 W 22 28 12 15 1010.7 1010.7 2.0
26/06:30pm 11.8 7.4 7.3 74 2.2 WSW 20 26 11 14 1010.8 1010.8 2.0
26/06:00pm 11.9 7.1 7.2 73 2.3 WSW 22 32 12 17 1010.7 1010.7 2.0
26/05:30pm 12.6 8.5 7.9 73 2.3 WSW 19 26 10 14 1010.8 1010.8 2.0
26/05:00pm 14.1 10.7 9.3 73 2.5 WSW 17 24 9 13 1010.9 1010.9 2.0
26/04:30pm 14.7 11.5 9.9 73 2.5 WSW 17 24 9 13 1010.8 1010.8 2.0
26/04:00pm 14.7 11.2 10.1 74 2.4 W 19 22 10 12 1010.9 1010.9 2.0
26/03:30pm 14.7 11.7 10.5 76 2.2 W 17 20 9 11 1010.8 1010.8 2.0
26/03:00pm 14.3 11.4 10.9 80 1.8 WNW 17 20 9 11 1010.9 1010.9 2.0
26/02:30pm 14.6 12.7 11.7 83 1.6 WNW 13 17 7 9 1010.9 1010.9 2.0
26/02:00pm 13.8 11.5 11.7 87 1.1 WNW 15 20 8 11 1011.0 1011.0 2.0
26/01:30pm 13.1 11.9 11.5 90 0.8 NW 9 13 5 7 1011.1 1011.1 2.0
26/01:00pm 12.5 11.3 11.7 95 0.4 NNW 9 15 5 8 1011.4 1011.4 2.0
26/12:30pm 10.5 8.8 9.7 95 0.4 NNW 9 15 5 8 1011.6 1011.6 2.0
26/12:00pm 10.7 8.3 9.9 95 0.4 N 13 17 7 9 1011.6 1011.6 1.4
26/11:30am 10.7 9.1 10.1 96 0.3 N 9 11 5 6 1011.7 1011.7 1.4
26/11:00am 10.0 9.5 9.4 96 0.3 N 2 9 1 5 1011.9 1011.9 1.2
26/10:30am 9.9 8.6 9.3 96 0.3 ENE 6 7 3 4 1012.0 1012.0 1.0
26/10:00am 9.6 8.0 8.8 95 0.4 NNE 7 9 4 5 1011.8 1011.8 0.6
26/09:30am 9.3 6.9 8.5 95 0.4 NNW 11 19 6 10 1011.7 1011.7 0.2
26/09:00am 9.1 5.5 8.3 95 0.4 NNE 17 22 9 12 1011.6 1011.6 3.0
26/08:30am 9.0 5.0 8.1 94 0.4 NNE 19 24 10 13 1011.4 1011.4 3.0
26/08:00am 9.0 5.6 7.8 92 0.6 ENE 15 20 8 11 1010.9 1010.9 3.0
26/07:30am 9.0 5.2 7.6 91 0.7 NE 17 22 9 12 1011.0 1011.0 3.0
26/07:00am 9.1 4.9 7.4 89 0.8 NNE 19 24 10 13 1010.9 1010.9 2.4
26/06:30am 9.5 6.0 7.3 86 1.0 NE 15 20 8 11 1010.8 1010.8 1.4
26/06:00am 10.3 7.2 7.4 82 1.4 NE 13 19 7 10 1010.8 1010.8 0.6
26/05:30am 10.9 6.6 7.8 81 1.5 NNW 20 32 11 17 1010.5 1010.5 0.6
26/05:00am 12.0 6.6 8.1 77 1.9 N 26 41 14 22 1010.3 1010.3 0.6
26/04:30am 11.4 6.9 7.1 75 2.1 NNE 20 28 11 15 1010.1 1010.1 0.6
26/04:00am 11.1 6.8 7.2 77 1.9 NE 19 24 10 13 1009.8 1009.8 0.6
26/03:30am 10.9 6.5 7.2 78 1.8 ENE 20 26 11 14 1009.9 1009.9 0.6
26/03:00am 10.1 6.0 6.4 78 1.7 ENE 17 20 9 11 1010.4 1010.4 0.6
26/02:30am 9.9 5.2 6.2 78 1.7 NE 20 24 11 13 1010.8 1010.8 0.6
26/02:00am 10.3 5.7 6.6 78 1.7 ENE 20 28 11 15 1010.9 1010.9 0.6
26/01:30am 9.8 5.1 6.2 78 1.7 NE 20 24 11 13 1011.0 1011.0 0.6
26/01:00am 10.0 4.6 6.3 78 1.7 NE 24 28 13 15 1011.5 1011.5 0.6
26/12:30am 10.7 6.4 6.8 77 1.8 ENE 19 22 10 12 1011.7 1011.7 0.6
26/12:00am 10.8 5.9 6.9 77 1.9 NE 22 26 12 14 1011.9 1011.9 0.6
 
Date/Time
EDT
Temp
°C
App
Temp
°C
Dew
Point
Rel
Hum
%
Delta-T
°C
Wind Press
QNH
hPa
Press
MSL
hPa
Rain
since 9 am
mm
Dir
 
Spd
km/h
Gust
km/h
Spd
kts
Gust
kts
25/11:30pm 11.6 6.8 7.5 76 2.0 NNE 22 26 12 14 1012.0 1012.0 0.6
25/11:00pm 11.1 5.8 7.0 76 2.0 NE 24 28 13 15 1012.0 1012.0 0.6
25/10:30pm 11.8 7.7 7.7 76 2.0 NNE 19 22 10 12 1012.0 1012.0 0.6
25/10:00pm 12.0 7.7 7.9 76 2.0 NNE 20 24 11 13 1012.1 1012.1 0.6
25/09:30pm 12.4 8.7 8.1 75 2.1 NNE 17 20 9 11 1012.1 1012.1 0.6
25/09:00pm 12.5 8.9 8.2 75 2.1 NE 17 19 9 10 1012.1 1012.1 0.6
25/08:30pm 12.0 8.2 7.5 74 2.2 NE 17 20 9 11 1011.8 1011.8 0.6
25/08:00pm 12.2 8.0 7.3 72 2.4 NNE 19 20 10 11 1011.7 1011.7 0.6
25/07:30pm 12.7 9.3 7.6 71 2.5 N 15 17 8 9 1011.7 1011.7 0.6
25/07:00pm 13.9 10.7 8.5 70 2.7 N 15 20 8 11 1011.8 1011.8 0.6
25/06:30pm 15.5 10.4 9.2 66 3.2 NNW 26 35 14 19 1011.9 1011.9 0.6
25/06:00pm 15.5 8.3 9.0 65 3.3 NNW 37 46 20 25 1011.7 1011.7 0.6
25/05:30pm 16.0 9.3 9.7 66 3.3 NW 35 43 19 23 1011.7 1011.7 0.6
25/05:00pm 16.0 10.3 9.9 67 3.2 NNW 30 41 16 22 1011.7 1011.7 0.6
25/04:30pm 15.1 8.7 9.2 68 3.0 NNW 33 44 18 24 1011.9 1011.9 0.6
25/04:00pm 15.6 8.4 9.3 66 3.3 NNW 37 50 20 27 1012.0 1012.0 0.6
25/03:44pm 15.4 9.2 10.0 70 2.8 NNW 33 52 18 28 1012.0 1012.0 0.6
25/03:30pm 15.9 10.7 10.4 70 2.9 NNW 28 39 15 21 1012.1 1012.1 0.6
25/03:00pm 16.3 12.0 10.8 70 2.9 NNW 24 35 13 19 1012.2 1012.2 0.6
25/02:30pm 16.1 10.6 10.6 70 2.9 NNW 30 43 16 23 1012.4 1012.4 0.6
25/02:08pm 15.7 10.6 10.5 71 2.8 N 28 46 15 25 1012.5 1012.5 0.6
25/02:00pm 15.4 9.8 10.0 70 2.8 N 30 43 16 23 1012.6 1012.6 0.6
25/01:30pm 15.5 10.3 10.3 71 2.7 NNW 28 37 15 20 1012.9 1012.9 0.6
25/01:01pm 14.6 9.5 10.6 77 2.1 NNW 28 52 15 28 1013.4 1013.4 0.6
25/01:00pm 14.8 9.8 10.8 77 2.1 NNW 28 39 15 21 1013.3 1013.3 0.6
25/12:34pm 14.0 6.7 10.2 78 2.0 NNW 39 57 21 31 1013.5 1013.5 0.6
25/12:30pm 14.0 6.3 10.0 77 2.1 NNW 41 57 22 31 1013.5 1013.5 0.6
25/12:18pm 14.3 7.8 10.3 77 2.1 NNW 35 54 19 29 1013.5 1013.5 0.6
25/12:00pm 14.6 8.9 11.2 80 1.8 N 32 46 17 25 1013.3 1013.3 0.6
25/11:30am 13.8 9.0 11.7 87 1.1 N 28 44 15 24 1013.8 1013.8 0.6
25/11:17am 13.4 8.6 11.5 88 1.0 NNW 28 46 15 25 1013.8 1013.8 0.6
25/11:00am 13.3 9.0 11.9 91 0.8 NNW 26 35 14 19 1013.9 1013.9 0.6
25/10:30am 12.2 7.3 11.3 94 0.5 N 28 35 15 19 1013.8 1013.8 0.6
25/10:00am 11.6 7.3 10.8 95 0.4 N 24 32 13 17 1014.1 1014.1 0.6
25/09:30am 10.9 6.3 9.7 92 0.6 N 24 35 13 19 1014.1 1014.1 0.4

Other Formats:

Comma delimited format used in spreadsheet applications
http://www.bom.gov.au/fwo/IDT60801/IDT60801.95961.axf

JavaScript Object Notation format (JSON) in row-major order
http://www.bom.gov.au/fwo/IDT60801/IDT60801.95961.json